Time;durP1;ratioP1;P1;durP2;ratioP2;P2;SDS_P1;SDS_P2;PMS_P1;PMS_P2;Temp;Humidity;BMP_temperature;BMP_pressure;BME280_temperature;BME280_humidity;BME280_pressure;Samples;Min_cycle;Max_cycle;Signal;HPM_P1;HPM_P2
2023/01/21 00:01:36;;;;;;;;;;;0.30;99.90;;;;;;5108835;28;19969;-70
2023/01/21 00:04:02;;;;;;;;;;;0.30;99.90;;;;;;5093838;28;19912;-71
2023/01/21 00:06:27;;;;;;;;;;;0.30;99.90;;;;;;5098097;28;19926;-70
2023/01/21 00:08:53;;;;;;;;;;;0.40;99.90;;;;;;5104968;28;19920;-71
2023/01/21 00:11:19;;;;;;;;;;;0.30;99.90;;;;;;5106485;28;19936;-71
2023/01/21 00:13:44;;;;;;;;;;;0.40;99.90;;;;;;5097664;28;20410;-71
2023/01/21 00:16:10;;;;;;;;;;;0.40;99.90;;;;;;5097584;28;19984;-71
2023/01/21 00:18:36;;;;;;;;;;;0.40;99.90;;;;;;5111123;28;19916;-70
2023/01/21 00:21:01;;;;;;;;;;;0.40;99.90;;;;;;5107810;28;19911;-71
2023/01/21 00:23:27;;;;;;;;;;;0.40;99.90;;;;;;5104028;28;19919;-71
2023/01/21 00:26:00;;;;;;;;;;;0.30;99.90;;;;;;5098110;28;19981;-70
2023/01/21 00:28:28;;;;;;;;;;;0.30;99.90;;;;;;5112767;28;19981;-70
2023/01/21 00:31:01;;;;;;;;;;;0.30;99.90;;;;;;5097251;28;19916;-71
2023/01/21 00:33:27;;;;;;;;;;;0.30;99.90;;;;;;5111453;28;20000;-71
2023/01/21 00:36:03;;;;;;;;;;;0.30;99.90;;;;;;5100064;28;19912;-70
2023/01/21 00:38:29;;;;;;;;;;;0.20;99.90;;;;;;5101813;28;20019;-70
2023/01/21 00:41:03;;;;;;;;;;;0.10;99.90;;;;;;5107957;28;19917;-70
2023/01/21 00:43:29;;;;;;;;;;;0.10;99.90;;;;;;5111311;28;19919;-70
2023/01/21 00:45:55;;;;;;;;;;;0.00;99.90;;;;;;5099451;28;19923;-70
2023/01/21 00:48:21;;;;;;;;;;;0.10;99.90;;;;;;5101760;28;19938;-71
2023/01/21 00:50:47;;;;;;;;;;;0.00;99.90;;;;;;5109237;28;20363;-71
2023/01/21 00:53:12;;;;;;;;;;;0.00;99.90;;;;;;5108934;28;20390;-71
2023/01/21 00:55:38;;;;;;;;;;;0.00;99.90;;;;;;5100259;28;19919;-71
2023/01/21 00:58:04;;;;;;;;;;;0.10;99.90;;;;;;5113686;28;20030;-70
2023/01/21 01:00:30;;;;;;;;;;;0.00;99.90;;;;;;5102866;28;19915;-70
2023/01/21 01:02:55;;;;;;;;;;;0.00;99.90;;;;;;5107739;28;19923;-71
2023/01/21 01:05:21;;;;;;;;;;;0.00;99.90;;;;;;5097389;28;19924;-70
2023/01/21 01:07:49;;;;;;;;;;;0.00;99.90;;;;;;5113627;28;19958;-71
2023/01/21 01:10:14;;;;;;;;;;;0.00;99.90;;;;;;5084121;28;20000;-71
2023/01/21 01:12:40;;;;;;;;;;;0.00;99.90;;;;;;5109817;28;19964;-71
2023/01/21 01:15:06;;;;;;;;;;;0.00;99.90;;;;;;5097499;28;20260;-71
2023/01/21 01:17:32;;;;;;;;;;;0.00;99.90;;;;;;5109902;28;19915;-71
2023/01/21 01:19:57;;;;;;;;;;;0.00;99.90;;;;;;5099995;28;19919;-71
2023/01/21 01:22:23;;;;;;;;;;;0.00;99.90;;;;;;5111866;28;20352;-71
2023/01/21 01:24:49;;;;;;;;;;;0.00;99.90;;;;;;5096193;28;20007;-72
2023/01/21 01:27:14;;;;;;;;;;;0.00;99.90;;;;;;5088377;28;19920;-67
2023/01/21 01:29:40;;;;;;;;;;;0.00;99.90;;;;;;5109719;28;20394;-66
2023/01/21 01:32:05;;;;;;;;;;;0.00;99.90;;;;;;5093985;28;19922;-70
2023/01/21 01:34:31;;;;;;;;;;;0.10;99.90;;;;;;5104577;28;19977;-67
2023/01/21 01:36:57;;;;;;;;;;;0.10;99.90;;;;;;5095513;28;20298;-71
2023/01/21 01:39:22;;;;;;;;;;;0.10;99.90;;;;;;5096258;28;19912;-71
2023/01/21 01:41:48;;;;;;;;;;;0.10;99.90;;;;;;5112724;28;20385;-67
2023/01/21 01:44:32;;;;;;;;;;;0.20;99.90;;;;;;5095638;28;20279;-67
2023/01/21 01:46:59;;;;;;;;;;;0.20;99.90;;;;;;5099051;28;20014;-66
2023/01/21 01:49:25;;;;;;;;;;;0.20;99.90;;;;;;5096005;28;19999;-67
2023/01/21 01:51:53;;;;;;;;;;;0.20;99.90;;;;;;5112465;28;20008;-66
2023/01/21 01:54:20;;;;;;;;;;;0.20;99.90;;;;;;5094936;28;19918;-70
2023/01/21 01:56:49;;;;;;;;;;;0.20;99.90;;;;;;5102272;28;19911;-72
2023/01/21 01:59:15;;;;;;;;;;;0.20;99.90;;;;;;5102522;28;19916;-73
2023/01/21 02:01:40;;;;;;;;;;;0.20;99.90;;;;;;5111263;28;19911;-72
2023/01/21 02:04:08;;;;;;;;;;;0.20;99.90;;;;;;5097526;28;19919;-73
2023/01/21 02:06:34;;;;;;;;;;;0.20;99.90;;;;;;5101647;28;20073;-73
2023/01/21 02:09:00;;;;;;;;;;;0.20;99.90;;;;;;5109330;28;19944;-73
2023/01/21 02:11:25;;;;;;;;;;;0.20;99.90;;;;;;5105903;28;20334;-72
2023/01/21 02:13:56;;;;;;;;;;;0.20;99.90;;;;;;5102650;28;20302;-66
2023/01/21 02:16:40;;;;;;;;;;;0.20;99.90;;;;;;5100257;28;19912;-73
2023/01/21 02:19:16;;;;;;;;;;;0.30;99.90;;;;;;5104489;28;19923;-73
2023/01/21 02:21:53;;;;;;;;;;;0.30;99.90;;;;;;5103092;28;19916;-71
2023/01/21 02:24:25;;;;;;;;;;;0.20;99.90;;;;;;5090027;28;19912;-74
2023/01/21 02:26:56;;;;;;;;;;;0.30;99.90;;;;;;5095632;28;19989;-73
2023/01/21 02:29:34;;;;;;;;;;;0.30;99.90;;;;;;5108145;28;19912;-72
2023/01/21 02:32:09;;;;;;;;;;;0.40;99.90;;;;;;5110620;28;20373;-73
2023/01/21 02:34:34;;;;;;;;;;;0.30;99.90;;;;;;5094441;28;19919;-73
2023/01/21 02:37:00;;;;;;;;;;;0.30;99.90;;;;;;5085998;28;19916;-72
2023/01/21 02:39:45;;;;;;;;;;;0.30;99.90;;;;;;5090562;28;19931;-66
2023/01/21 02:42:10;;;;;;;;;;;0.30;99.90;;;;;;5092481;28;20611;-73
2023/01/21 02:44:38;;;;;;;;;;;0.40;99.90;;;;;;5092818;28;19912;-67
2023/01/21 02:47:03;;;;;;;;;;;0.40;99.90;;;;;;5091491;28;20386;-72
2023/01/21 02:49:44;;;;;;;;;;;0.30;99.90;;;;;;5093300;28;19912;-73
2023/01/21 02:52:20;;;;;;;;;;;0.40;99.90;;;;;;5092516;28;19999;-72
2023/01/21 02:54:53;;;;;;;;;;;0.40;99.90;;;;;;5091585;28;19912;-69
2023/01/21 02:57:29;;;;;;;;;;;0.40;99.90;;;;;;5090359;28;19939;-70
2023/01/21 02:59:55;;;;;;;;;;;0.40;99.90;;;;;;5089896;28;19912;-69
2023/01/21 03:02:39;;;;;;;;;;;0.40;99.90;;;;;;5091131;28;19916;-69
2023/01/21 03:05:18;;;;;;;;;;;0.40;99.90;;;;;;5091112;28;20003;-68
2023/01/21 03:07:43;;;;;;;;;;;0.30;99.90;;;;;;5090875;28;19974;-68
2023/01/21 03:10:26;;;;;;;;;;;0.30;99.90;;;;;;5092891;28;20394;-68
2023/01/21 03:13:02;;;;;;;;;;;0.30;99.90;;;;;;5092060;28;20359;-68
2023/01/21 03:18:18;;;;;;;;;;;0.30;99.90;;;;;;5089468;28;19962;-69
2023/01/21 03:20:46;;;;;;;;;;;0.30;99.90;;;;;;5090620;28;19947;-68
2023/01/21 03:23:14;;;;;;;;;;;0.30;99.90;;;;;;5091821;28;19932;-68
2023/01/21 03:25:40;;;;;;;;;;;0.30;99.90;;;;;;5090996;28;19920;-67
2023/01/21 03:28:12;;;;;;;;;;;0.30;99.90;;;;;;5087362;28;19978;-67
2023/01/21 03:30:43;;;;;;;;;;;0.30;99.90;;;;;;5094325;28;19912;-68
2023/01/21 03:33:10;;;;;;;;;;;0.20;99.90;;;;;;5093861;28;19916;-69
2023/01/21 03:35:37;;;;;;;;;;;0.20;99.90;;;;;;5094439;28;19996;-69
2023/01/21 03:38:08;;;;;;;;;;;0.30;99.90;;;;;;5092470;28;20001;-69
2023/01/21 03:40:38;;;;;;;;;;;0.30;99.90;;;;;;5093399;28;19919;-67
2023/01/21 03:43:04;;;;;;;;;;;0.30;99.90;;;;;;5093490;28;19919;-70
2023/01/21 03:45:35;;;;;;;;;;;0.30;99.90;;;;;;5094020;28;19924;-70
2023/01/21 03:48:33;;;;;;;;;;;0.40;99.90;;;;;;5093870;28;20352;-69
2023/01/21 03:51:01;;;;;;;;;;;0.40;99.90;;;;;;5058819;28;19959;-68
2023/01/21 03:53:27;;;;;;;;;;;0.40;99.90;;;;;;5094331;28;19912;-68
2023/01/21 03:55:53;;;;;;;;;;;0.40;99.90;;;;;;5093909;28;20045;-69
2023/01/21 03:58:18;;;;;;;;;;;0.40;99.90;;;;;;5091288;28;20068;-70
2023/01/21 04:00:48;;;;;;;;;;;0.40;99.90;;;;;;5086326;28;19912;-69
2023/01/21 04:03:13;;;;;;;;;;;0.40;99.90;;;;;;5083924;28;19919;-72
2023/01/21 04:05:42;;;;;;;;;;;0.40;99.90;;;;;;5092788;28;19920;-73
2023/01/21 04:08:08;;;;;;;;;;;0.40;99.90;;;;;;5092925;28;19912;-72
2023/01/21 04:10:33;;;;;;;;;;;0.40;99.90;;;;;;5093163;28;19919;-72
2023/01/21 04:12:59;;;;;;;;;;;0.40;99.90;;;;;;5093339;28;19933;-72
2023/01/21 04:15:24;;;;;;;;;;;0.40;99.90;;;;;;5093035;28;19999;-73
2023/01/21 04:17:50;;;;;;;;;;;0.40;99.90;;;;;;5093779;28;19916;-72
2023/01/21 04:20:16;;;;;;;;;;;0.40;99.90;;;;;;5093572;28;19939;-73
2023/01/21 04:22:41;;;;;;;;;;;0.40;99.90;;;;;;5093344;28;19912;-72
2023/01/21 04:25:08;;;;;;;;;;;0.30;99.90;;;;;;5093237;28;19916;-73
2023/01/21 04:27:33;;;;;;;;;;;0.30;99.90;;;;;;5093603;28;19919;-73
2023/01/21 04:29:59;;;;;;;;;;;0.30;99.90;;;;;;5093821;28;19913;-73
2023/01/21 04:32:25;;;;;;;;;;;0.40;99.90;;;;;;5093376;28;20181;-70
2023/01/21 04:34:50;;;;;;;;;;;0.30;99.90;;;;;;5093530;28;19997;-73
2023/01/21 04:37:16;;;;;;;;;;;0.40;99.90;;;;;;5094529;28;19919;-68
2023/01/21 04:39:41;;;;;;;;;;;0.40;99.90;;;;;;5098754;28;19959;-73
2023/01/21 04:42:07;;;;;;;;;;;0.30;99.90;;;;;;5093229;28;20345;-68
2023/01/21 04:44:33;;;;;;;;;;;0.30;99.90;;;;;;5093513;28;19993;-72
2023/01/21 04:46:59;;;;;;;;;;;0.30;99.90;;;;;;5092878;28;20299;-72
2023/01/21 04:49:25;;;;;;;;;;;0.30;99.90;;;;;;5093461;28;19919;-68
2023/01/21 04:51:50;;;;;;;;;;;0.30;99.90;;;;;;5093407;28;19977;-70
2023/01/21 04:54:16;;;;;;;;;;;0.30;99.90;;;;;;5093720;28;19912;-71
2023/01/21 04:56:41;;;;;;;;;;;0.20;99.90;;;;;;5093424;28;19912;-71
2023/01/21 04:59:07;;;;;;;;;;;0.20;99.90;;;;;;5093657;28;19912;-70
2023/01/21 05:01:33;;;;;;;;;;;0.20;99.90;;;;;;5093446;28;19912;-72
2023/01/21 05:03:58;;;;;;;;;;;0.10;99.90;;;;;;5097124;28;19913;-72
2023/01/21 05:06:24;;;;;;;;;;;0.10;99.90;;;;;;5095112;28;20009;-71
2023/01/21 05:08:49;;;;;;;;;;;0.10;99.90;;;;;;5097001;28;19912;-67
2023/01/21 05:11:16;;;;;;;;;;;0.00;99.90;;;;;;5097287;28;19923;-67
2023/01/21 05:13:42;;;;;;;;;;;0.00;99.90;;;;;;5095675;28;20504;-71
2023/01/21 05:16:08;;;;;;;;;;;0.10;99.90;;;;;;5095081;28;19912;-70
2023/01/21 05:18:37;;;;;;;;;;;-0.10;99.90;;;;;;5094188;28;19916;-71
2023/01/21 05:21:03;;;;;;;;;;;-0.10;99.90;;;;;;5096768;28;19919;-69
2023/01/21 05:23:29;;;;;;;;;;;-0.20;99.90;;;;;;5096520;28;19912;-71
2023/01/21 05:25:55;;;;;;;;;;;-0.20;99.90;;;;;;5094581;28;19927;-70
2023/01/21 05:28:20;;;;;;;;;;;-0.30;99.90;;;;;;5096015;28;19973;-72
2023/01/21 05:30:46;;;;;;;;;;;-0.30;99.90;;;;;;5117602;27;19920;-73
2023/01/21 05:33:12;;;;;;;;;;;-0.30;99.90;;;;;;5096228;28;19916;-73
2023/01/21 05:35:37;;;;;;;;;;;-0.40;99.90;;;;;;5094998;28;20010;-71
2023/01/21 05:38:03;;;;;;;;;;;-0.40;99.90;;;;;;5095170;28;19978;-76
2023/01/21 05:40:28;;;;;;;;;;;-0.50;99.90;;;;;;5096480;28;19919;-74
2023/01/21 05:42:54;;;;;;;;;;;-0.50;99.90;;;;;;5095658;28;19919;-68
2023/01/21 05:45:20;;;;;;;;;;;-0.50;99.90;;;;;;5086285;28;19916;-74
2023/01/21 05:47:45;;;;;;;;;;;-0.40;99.90;;;;;;5095733;28;19912;-73
2023/01/21 05:50:11;;;;;;;;;;;-0.40;99.90;;;;;;5094104;28;19912;-73
2023/01/21 05:52:36;;;;;;;;;;;-0.40;99.90;;;;;;5093866;28;19916;-73
2023/01/21 05:55:02;;;;;;;;;;;-0.40;99.90;;;;;;5093495;28;19918;-71
2023/01/21 05:57:28;;;;;;;;;;;-0.30;99.90;;;;;;5094272;28;19920;-72
2023/01/21 05:59:54;;;;;;;;;;;-0.20;99.90;;;;;;5095920;28;19927;-72
2023/01/21 06:02:19;;;;;;;;;;;-0.30;99.90;;;;;;5095771;28;19912;-72
2023/01/21 06:04:45;;;;;;;;;;;-0.30;99.90;;;;;;5095711;28;19966;-73
2023/01/21 06:07:10;;;;;;;;;;;-0.40;99.90;;;;;;5094114;28;19992;-72
2023/01/21 06:09:36;;;;;;;;;;;-0.40;99.90;;;;;;5093832;28;19977;-68
2023/01/21 06:12:02;;;;;;;;;;;-0.30;99.90;;;;;;5092146;28;19952;-73
2023/01/21 06:14:27;;;;;;;;;;;-0.30;99.90;;;;;;5091801;28;19947;-73
2023/01/21 06:16:53;;;;;;;;;;;-0.30;99.90;;;;;;5093551;28;19916;-72
2023/01/21 06:19:19;;;;;;;;;;;-0.20;99.90;;;;;;5093572;28;19969;-72
2023/01/21 06:21:44;;;;;;;;;;;-0.20;99.90;;;;;;5094307;28;19995;-71
2023/01/21 06:24:10;;;;;;;;;;;-0.20;99.90;;;;;;5095572;28;19913;-74
2023/01/21 06:26:37;;;;;;;;;;;-0.20;99.90;;;;;;5094479;28;20252;-73
2023/01/21 06:29:03;;;;;;;;;;;-0.10;99.90;;;;;;5095413;28;19998;-73
2023/01/21 06:31:28;;;;;;;;;;;-0.10;99.90;;;;;;5095341;28;19920;-73
2023/01/21 06:33:54;;;;;;;;;;;0.00;99.90;;;;;;5094928;28;19957;-73
2023/01/21 06:36:19;;;;;;;;;;;0.00;99.90;;;;;;5095433;28;19942;-73
2023/01/21 06:38:45;;;;;;;;;;;0.10;99.90;;;;;;5093546;28;19923;-75
2023/01/21 06:41:10;;;;;;;;;;;0.10;99.90;;;;;;5095065;28;20018;-74
2023/01/21 06:43:36;;;;;;;;;;;0.10;99.90;;;;;;5094913;28;19916;-75
2023/01/21 06:46:02;;;;;;;;;;;0.10;99.90;;;;;;5092722;28;19924;-72
2023/01/21 06:48:27;;;;;;;;;;;0.20;99.90;;;;;;5094993;28;19912;-73
2023/01/21 06:50:53;;;;;;;;;;;0.20;99.90;;;;;;5094886;28;20391;-72
2023/01/21 06:53:18;;;;;;;;;;;0.20;99.90;;;;;;5094822;28;19919;-72
2023/01/21 06:55:46;;;;;;;;;;;0.20;99.90;;;;;;5094839;28;19918;-72
2023/01/21 06:58:11;;;;;;;;;;;0.20;99.90;;;;;;5094977;28;19920;-73
2023/01/21 07:00:37;;;;;;;;;;;0.20;99.90;;;;;;5094962;28;19934;-72
2023/01/21 07:03:02;;;;;;;;;;;0.20;99.90;;;;;;5087767;28;19913;-72
2023/01/21 07:05:28;;;;;;;;;;;0.20;99.90;;;;;;5078568;28;19920;-73
2023/01/21 07:07:54;;;;;;;;;;;0.20;99.90;;;;;;5093498;28;19965;-73
2023/01/21 07:10:20;;;;;;;;;;;0.20;99.90;;;;;;5093253;28;19916;-72
2023/01/21 07:12:46;;;;;;;;;;;0.20;99.90;;;;;;5093961;28;19919;-73
2023/01/21 07:15:12;;;;;;;;;;;0.20;99.90;;;;;;5094777;28;19923;-72
2023/01/21 07:17:37;;;;;;;;;;;0.20;99.90;;;;;;5087758;28;19923;-70
2023/01/21 07:20:03;;;;;;;;;;;0.20;99.90;;;;;;5074561;28;19912;-72
2023/01/21 07:22:29;;;;;;;;;;;0.30;99.90;;;;;;5084985;28;19919;-72
2023/01/21 07:24:55;;;;;;;;;;;0.20;99.90;;;;;;5094089;28;20330;-72
2023/01/21 07:27:21;;;;;;;;;;;0.20;99.90;;;;;;5093319;28;19923;-72
2023/01/21 07:29:46;;;;;;;;;;;0.30;99.90;;;;;;5094434;28;19919;-67
2023/01/21 07:32:12;;;;;;;;;;;0.30;99.90;;;;;;5094146;28;19912;-71
2023/01/21 07:34:37;;;;;;;;;;;0.30;99.90;;;;;;5092726;28;20294;-72
2023/01/21 07:37:03;;;;;;;;;;;0.30;99.90;;;;;;5094251;28;19943;-70
2023/01/21 07:39:28;;;;;;;;;;;0.20;99.90;;;;;;5093731;28;19919;-71
2023/01/21 07:41:54;;;;;;;;;;;0.30;99.90;;;;;;5093888;28;19912;-69
2023/01/21 07:44:19;;;;;;;;;;;0.30;99.90;;;;;;5093932;28;19912;-72
2023/01/21 07:46:45;;;;;;;;;;;0.30;99.90;;;;;;5094199;28;19924;-70
2023/01/21 07:49:15;;;;;;;;;;;0.30;99.90;;;;;;5093595;28;19916;-73
2023/01/21 07:51:42;;;;;;;;;;;0.40;99.90;;;;;;5092521;28;20274;-71
2023/01/21 07:54:09;;;;;;;;;;;0.40;99.90;;;;;;5093384;28;19912;-72
2023/01/21 07:56:34;;;;;;;;;;;0.40;99.90;;;;;;5093537;28;19916;-71
2023/01/21 07:59:00;;;;;;;;;;;0.40;99.90;;;;;;5093911;28;19919;-71
2023/01/21 08:01:29;;;;;;;;;;;0.40;99.90;;;;;;5093857;28;19916;-71
2023/01/21 08:03:55;;;;;;;;;;;0.40;99.90;;;;;;5093208;28;19951;-69
2023/01/21 08:06:21;;;;;;;;;;;0.40;99.90;;;;;;5091469;28;19920;-70
2023/01/21 08:08:47;;;;;;;;;;;0.50;99.90;;;;;;5092944;28;20345;-72
2023/01/21 08:11:12;;;;;;;;;;;0.50;99.90;;;;;;5093311;28;19923;-72
2023/01/21 08:13:38;;;;;;;;;;;0.50;99.90;;;;;;5093657;28;19913;-72
2023/01/21 08:16:03;;;;;;;;;;;0.50;99.90;;;;;;5093335;28;19920;-72
2023/01/21 08:18:29;;;;;;;;;;;0.50;99.90;;;;;;5091916;28;19942;-72
2023/01/21 08:20:55;;;;;;;;;;;0.50;99.90;;;;;;5092208;28;19912;-71
2023/01/21 08:23:21;;;;;;;;;;;0.60;99.90;;;;;;5093523;28;19912;-72
2023/01/21 08:25:47;;;;;;;;;;;0.50;99.90;;;;;;5092057;28;20268;-71
2023/01/21 08:28:13;;;;;;;;;;;0.40;99.90;;;;;;5093823;28;19965;-70
2023/01/21 08:30:38;;;;;;;;;;;0.30;99.90;;;;;;5093596;28;19912;-70
2023/01/21 08:33:04;;;;;;;;;;;0.20;99.90;;;;;;5092056;28;19912;-71
2023/01/21 08:35:29;;;;;;;;;;;0.10;99.90;;;;;;5093356;28;19916;-71
2023/01/21 08:37:56;;;;;;;;;;;0.10;99.90;;;;;;5095222;28;20433;-67
2023/01/21 08:40:24;;;;;;;;;;;0.00;99.90;;;;;;5096856;28;19913;-71
2023/01/21 08:42:50;;;;;;;;;;;0.00;99.90;;;;;;5094451;28;19929;-73
2023/01/21 08:45:15;;;;;;;;;;;0.00;99.90;;;;;;5096828;28;19916;-73
2023/01/21 08:47:41;;;;;;;;;;;0.00;99.90;;;;;;5096200;28;19965;-75
2023/01/21 08:50:08;;;;;;;;;;;0.00;99.90;;;;;;5096023;28;19915;-75
2023/01/21 08:52:33;;;;;;;;;;;0.00;99.90;;;;;;5095636;28;19912;-70
2023/01/21 08:54:59;;;;;;;;;;;-0.10;99.90;;;;;;5094908;28;19923;-74
2023/01/21 08:57:25;;;;;;;;;;;-0.10;99.90;;;;;;5094667;28;20321;-69
2023/01/21 08:59:51;;;;;;;;;;;-0.10;99.90;;;;;;5094557;28;19912;-69
2023/01/21 09:02:17;;;;;;;;;;;0.00;99.90;;;;;;5082789;28;19919;-69
2023/01/21 09:04:42;;;;;;;;;;;0.00;99.90;;;;;;5096181;28;19957;-67
2023/01/21 09:07:08;;;;;;;;;;;0.10;99.90;;;;;;5095303;28;19920;-66
2023/01/21 09:09:33;;;;;;;;;;;0.10;99.90;;;;;;5091651;28;19918;-69
2023/01/21 09:11:59;;;;;;;;;;;0.10;99.90;;;;;;5095948;28;19920;-69
2023/01/21 09:14:25;;;;;;;;;;;0.20;99.90;;;;;;5096160;28;19916;-70
2023/01/21 09:16:51;;;;;;;;;;;0.30;99.90;;;;;;5095088;28;19920;-67
2023/01/21 09:19:16;;;;;;;;;;;0.30;99.90;;;;;;5095627;28;20251;-69
2023/01/21 09:21:42;;;;;;;;;;;0.50;99.90;;;;;;5094258;28;19916;-66
2023/01/21 09:24:08;;;;;;;;;;;0.60;99.90;;;;;;5095014;28;20396;-67
2023/01/21 09:26:33;;;;;;;;;;;0.70;99.90;;;;;;5095704;28;20326;-66
2023/01/21 09:29:00;;;;;;;;;;;0.70;99.90;;;;;;5089221;28;19978;-67
2023/01/21 09:31:27;;;;;;;;;;;0.70;99.90;;;;;;5089593;28;19916;-67
2023/01/21 09:33:57;;;;;;;;;;;0.80;99.90;;;;;;5092894;28;19989;-68
2023/01/21 09:36:25;;;;;;;;;;;0.80;99.90;;;;;;5096243;28;20003;-68
2023/01/21 09:38:51;;;;;;;;;;;0.80;99.90;;;;;;5095028;28;20532;-67
2023/01/21 09:41:22;;;;;;;;;;;1.20;99.90;;;;;;5094827;28;19912;-67
2023/01/21 09:43:50;;;;;;;;;;;0.80;99.90;;;;;;5094390;28;19919;-66
2023/01/21 09:46:21;;;;;;;;;;;0.80;99.90;;;;;;5094855;28;19924;-66
2023/01/21 09:48:48;;;;;;;;;;;1.00;99.90;;;;;;5094995;28;19912;-66
2023/01/21 09:51:14;;;;;;;;;;;;;;;;;;5096320;28;19976;-66
2023/01/21 09:53:46;;;;;;;;;;;1.60;99.90;;;;;;5094531;28;20011;-67
2023/01/21 09:56:38;;;;;;;;;;;1.50;99.90;;;;;;5082339;28;19912;-67
2023/01/21 09:59:13;;;;;;;;;;;1.50;99.90;;;;;;5081103;28;19920;-67
2023/01/21 10:01:39;;;;;;;;;;;1.50;99.90;;;;;;5085971;28;19947;-66
2023/01/21 10:04:14;;;;;;;;;;;1.40;99.90;;;;;;5094933;28;19919;-67
2023/01/21 10:06:47;;;;;;;;;;;1.20;99.90;;;;;;5093070;28;19967;-67
2023/01/21 10:09:27;;;;;;;;;;;1.20;99.90;;;;;;5093820;28;20057;-67
2023/01/21 10:12:04;;;;;;;;;;;1.20;99.90;;;;;;5095415;28;19959;-67
2023/01/21 10:14:56;;;;;;;;;;;1.30;99.90;;;;;;5092859;28;19917;-67
2023/01/21 10:17:24;;;;;;;;;;;1.40;99.90;;;;;;5086904;28;19916;-67
2023/01/21 10:19:56;;;;;;;;;;;1.50;99.90;;;;;;5095105;28;19958;-68
2023/01/21 10:22:25;;;;;;;;;;;1.30;99.90;;;;;;5095020;28;20391;-67
2023/01/21 10:24:57;;;;;;;;;;;1.30;99.90;;;;;;5095180;28;19919;-67
2023/01/21 10:27:23;;;;;;;;;;;1.30;99.90;;;;;;5094519;28;20371;-66
2023/01/21 10:29:52;;;;;;;;;;;1.40;99.90;;;;;;5095003;28;19999;-66
2023/01/21 10:32:23;;;;;;;;;;;1.40;99.90;;;;;;5091554;28;19912;-70
2023/01/21 10:34:51;;;;;;;;;;;1.30;99.90;;;;;;5092621;28;20440;-70
2023/01/21 10:37:40;;;;;;;;;;;1.20;99.90;;;;;;5091588;28;19920;-65
2023/01/21 10:40:44;;;;;;;;;;;1.20;99.90;;;;;;5077476;28;19912;-69
2023/01/21 10:43:09;;;;;;;;;;;1.30;99.90;;;;;;5094254;28;20375;-67
2023/01/21 10:45:38;;;;;;;;;;;1.40;99.90;;;;;;5091624;28;19923;-68
2023/01/21 10:48:17;;;;;;;;;;;1.20;99.90;;;;;;5093289;28;19964;-66
2023/01/21 10:50:42;;;;;;;;;;;1.10;99.90;;;;;;5092514;28;19950;-68
2023/01/21 10:53:13;;;;;;;;;;;1.20;99.90;;;;;;5094100;28;19959;-65
2023/01/21 10:55:58;;;;;;;;;;;1.40;99.90;;;;;;5093418;28;19957;-68
2023/01/21 10:58:43;;;;;;;;;;;1.60;99.90;;;;;;5092239;28;20386;-66
2023/01/21 11:01:15;;;;;;;;;;;1.70;99.90;;;;;;5090268;28;19912;-66
2023/01/21 11:03:46;;;;;;;;;;;1.70;99.90;;;;;;5090869;28;20376;-67
2023/01/21 11:06:13;;;;;;;;;;;1.90;99.90;;;;;;5087769;28;19977;-67
2023/01/21 11:08:40;;;;;;;;;;;2.00;99.90;;;;;;5085872;28;20006;-67
2023/01/21 11:11:06;;;;;;;;;;;2.10;99.90;;;;;;5092234;28;19962;-66
2023/01/21 11:13:31;;;;;;;;;;;2.20;99.90;;;;;;5094196;28;19912;-68
2023/01/21 11:15:58;;;;;;;;;;;2.30;99.90;;;;;;5092421;28;19912;-66
2023/01/21 11:18:35;;;;;;;;;;;2.20;99.90;;;;;;5092353;28;20282;-66
2023/01/21 11:21:20;;;;;;;;;;;2.30;99.90;;;;;;5094382;28;20416;-66
2023/01/21 11:23:59;;;;;;;;;;;2.30;99.90;;;;;;5090395;28;20372;-65
2023/01/21 11:26:27;;;;;;;;;;;2.20;99.90;;;;;;5072104;28;19924;-68
2023/01/21 11:29:05;;;;;;;;;;;2.10;99.90;;;;;;5082246;28;19916;-67
2023/01/21 11:31:32;;;;;;;;;;;2.20;99.90;;;;;;5091614;28;20359;-68
2023/01/21 11:34:18;;;;;;;;;;;2.10;99.90;;;;;;5092990;28;19912;-66
2023/01/21 11:36:56;;;;;;;;;;;0.90;99.90;;;;;;5090826;28;20275;-67
2023/01/21 11:39:23;;;;;;;;;;;2.00;99.90;;;;;;5091641;28;19919;-67
2023/01/21 11:41:56;;;;;;;;;;;2.10;99.90;;;;;;5092771;28;19912;-68
2023/01/21 11:44:22;;;;;;;;;;;2.10;99.90;;;;;;5093142;28;20002;-66
2023/01/21 11:46:48;;;;;;;;;;;2.40;99.90;;;;;;5094279;28;20364;-69
2023/01/21 11:49:14;;;;;;;;;;;2.20;99.90;;;;;;5091993;28;20314;-68
2023/01/21 11:51:40;;;;;;;;;;;2.30;99.90;;;;;;5092642;28;19919;-65
2023/01/21 11:54:07;;;;;;;;;;;2.50;99.90;;;;;;5091575;28;19916;-66
2023/01/21 11:56:34;;;;;;;;;;;2.40;99.90;;;;;;5091870;28;19912;-65
2023/01/21 11:59:00;;;;;;;;;;;2.30;99.90;;;;;;5090890;28;19912;-65
2023/01/21 12:01:25;;;;;;;;;;;2.30;99.90;;;;;;5091500;28;19921;-66
2023/01/21 12:03:52;;;;;;;;;;;2.50;99.90;;;;;;5092497;28;19918;-69
2023/01/21 12:06:20;;;;;;;;;;;2.60;99.90;;;;;;5092184;28;19920;-69
2023/01/21 12:08:51;;;;;;;;;;;2.60;99.90;;;;;;5091587;28;19916;-69
2023/01/21 12:11:19;;;;;;;;;;;2.80;99.90;;;;;;5090459;28;19955;-70
2023/01/21 12:13:58;;;;;;;;;;;2.80;99.90;;;;;;5096677;28;19908;-69
2023/01/21 12:16:36;;;;;;;;;;;2.80;99.30;;;;;;5096720;28;20378;-69
2023/01/21 12:19:07;;;;;;;;;;;2.50;97.10;;;;;;5096270;28;19916;-70
2023/01/21 12:21:44;;;;;;;;;;;2.40;96.10;;;;;;5096446;28;19916;-68
2023/01/21 12:24:10;;;;;;;;;;;2.20;96.20;;;;;;5094144;28;19947;-69
2023/01/21 12:26:38;;;;;;;;;;;2.10;96.50;;;;;;5085624;28;19971;-68
2023/01/21 12:29:12;;;;;;;;;;;1.80;96.40;;;;;;5085992;28;19923;-66
2023/01/21 12:31:42;;;;;;;;;;;1.80;96.60;;;;;;5096093;28;19915;-67
2023/01/21 12:34:23;;;;;;;;;;;1.80;97.40;;;;;;5095873;28;19998;-68
2023/01/21 12:36:52;;;;;;;;;;;1.90;95.80;;;;;;5095740;28;19919;-68
2023/01/21 12:39:24;;;;;;;;;;;2.10;96.90;;;;;;5095630;28;19920;-68
2023/01/21 12:42:12;;;;;;;;;;;2.10;96.50;;;;;;5094445;28;19912;-68
2023/01/21 12:44:41;;;;;;;;;;;2.30;96.30;;;;;;5077722;28;19965;-70
2023/01/21 12:47:20;;;;;;;;;;;2.20;96.40;;;;;;5092340;28;20014;-67
2023/01/21 12:49:54;;;;;;;;;;;2.20;95.60;;;;;;5093390;28;20398;-67
2023/01/21 12:52:29;;;;;;;;;;;2.10;95.10;;;;;;5075646;28;19958;-68
2023/01/21 12:55:03;;;;;;;;;;;2.00;95.80;;;;;;5079089;28;19920;-68
2023/01/21 12:57:38;;;;;;;;;;;2.00;96.20;;;;;;5094977;28;19965;-69
2023/01/21 13:00:19;;;;;;;;;;;2.10;95.70;;;;;;5094926;28;19918;-66
2023/01/21 13:02:55;;;;;;;;;;;2.10;94.80;;;;;;5093952;28;19912;-66
2023/01/21 13:05:35;;;;;;;;;;;2.20;95.50;;;;;;5095127;28;19913;-69
2023/01/21 13:08:19;;;;;;;;;;;2.20;94.80;;;;;;5094418;28;20313;-70
2023/01/21 13:10:47;;;;;;;;;;;2.20;95.20;;;;;;5096134;28;20253;-68
2023/01/21 13:13:16;;;;;;;;;;;2.20;94.70;;;;;;5093717;28;19918;-65
2023/01/21 13:15:44;;;;;;;;;;;2.40;95.80;;;;;;5094112;28;19919;-66
2023/01/21 13:18:14;;;;;;;;;;;2.30;95.00;;;;;;5093850;28;20481;-70
2023/01/21 13:20:44;;;;;;;;;;;2.40;95.40;;;;;;5094710;28;19951;-67
2023/01/21 13:23:20;;;;;;;;;;;2.40;95.40;;;;;;5094761;28;19995;-66
2023/01/21 13:25:55;;;;;;;;;;;2.30;97.10;;;;;;5092548;28;19963;-65
2023/01/21 13:28:26;;;;;;;;;;;2.30;96.80;;;;;;5093664;28;19958;-66
2023/01/21 13:30:55;;;;;;;;;;;2.30;97.10;;;;;;5094068;28;20321;-68
2023/01/21 13:33:24;;;;;;;;;;;2.00;96.50;;;;;;5093662;28;19999;-66
2023/01/21 13:35:58;;;;;;;;;;;2.00;96.80;;;;;;5094296;28;20360;-69
2023/01/21 13:38:34;;;;;;;;;;;2.00;97.00;;;;;;5093676;28;19916;-69
2023/01/21 13:41:02;;;;;;;;;;;2.10;97.00;;;;;;5092086;28;19912;-69
2023/01/21 13:43:40;;;;;;;;;;;2.10;96.90;;;;;;5096177;28;19962;-69
2023/01/21 13:46:23;;;;;;;;;;;2.20;97.20;;;;;;5109264;28;19981;-67
2023/01/21 13:48:49;;;;;;;;;;;2.00;97.50;;;;;;5097814;28;19919;-66
2023/01/21 13:51:33;;;;;;;;;;;2.10;97.90;;;;;;5092929;28;20280;-68
2023/01/21 13:54:23;;;;;;;;;;;2.00;97.80;;;;;;5111709;28;20058;-68
2023/01/21 13:57:08;;;;;;;;;;;2.10;97.90;;;;;;5110774;28;19912;-67
2023/01/21 13:59:38;;;;;;;;;;;2.00;97.70;;;;;;5090637;28;20375;-65
2023/01/21 14:02:08;;;;;;;;;;;2.00;97.60;;;;;;5090778;28;19920;-66
2023/01/21 14:04:37;;;;;;;;;;;1.90;98.40;;;;;;5090399;28;19919;-65
2023/01/21 14:07:06;;;;;;;;;;;1.90;98.80;;;;;;5091723;28;19927;-65
2023/01/21 14:09:36;;;;;;;;;;;1.70;97.10;;;;;;5092431;28;19912;-66
2023/01/21 14:12:15;;;;;;;;;;;1.70;96.80;;;;;;5091422;28;19912;-68
2023/01/21 14:14:43;;;;;;;;;;;1.70;97.90;;;;;;5091466;28;19999;-68
2023/01/21 14:17:17;;;;;;;;;;;1.70;97.90;;;;;;5092417;28;19918;-68
2023/01/21 14:20:06;;;;;;;;;;;1.80;98.30;;;;;;5092289;28;19938;-68
2023/01/21 14:22:38;;;;;;;;;;;1.70;97.00;;;;;;5090262;28;19948;-68
2023/01/21 14:25:06;;;;;;;;;;;1.70;98.10;;;;;;5092120;28;19919;-64
2023/01/21 14:27:32;;;;;;;;;;;1.80;98.60;;;;;;5093335;28;20305;-67
2023/01/21 14:30:05;;;;;;;;;;;1.70;97.80;;;;;;5090708;28;19958;-68
2023/01/21 14:32:36;;;;;;;;;;;1.60;98.00;;;;;;5093629;28;20006;-69
2023/01/21 14:35:20;;;;;;;;;;;1.60;98.00;;;;;;5093659;28;20393;-67
2023/01/21 14:37:48;;;;;;;;;;;1.40;98.00;;;;;;5094027;28;19965;-67
2023/01/21 14:40:30;;;;;;;;;;;1.40;98.00;;;;;;5092699;28;20713;-67
2023/01/21 14:42:56;;;;;;;;;;;1.50;99.20;;;;;;5093059;28;20431;-66